Time;durP1;ratioP1;P1;durP2;ratioP2;P2;SDS_P1;SDS_P2;PMS_P1;PMS_P2;Temp;Humidity;BMP_temperature;BMP_pressure;BME280_temperature;BME280_humidity;BME280_pressure;Samples;Min_cycle;Max_cycle;Signal;HPM_P1;HPM_P2
2022/03/08 00:00:14;;;;;;;19.40;7.40;;;;;;;-2.13;74.74;101115.04;88187;1275;89008;-61
2022/03/08 00:02:43;;;;;;;16.90;8.30;;;;;;;-2.17;74.83;101121.27;88192;1274;96431;-61
2022/03/08 00:04:56;;;;;;;16.20;8.40;;;;;;;-2.19;74.87;101117.40;88282;1275;82939;-80
2022/03/08 00:07:06;;;;;;;18.20;7.90;;;;;;;-2.15;74.92;101118.73;88258;1274;80616;-80
2022/03/08 00:09:15;;;;;;;21.70;9.30;;;;;;;-2.14;74.89;101123.11;88315;1275;96919;-80
2022/03/08 00:11:26;;;;;;;24.60;10.90;;;;;;;-2.14;75.13;101125.52;88191;1274;87981;-80
2022/03/08 00:13:38;;;;;;;19.00;9.30;;;;;;;-2.16;74.83;101123.35;88179;1274;95506;-62
2022/03/08 00:15:48;;;;;;;18.90;8.90;;;;;;;-2.16;74.74;101121.42;88201;1274;76616;-61
2022/03/08 00:18:00;;;;;;;18.20;8.20;;;;;;;-2.18;74.75;101119.44;88204;1274;82741;-61
2022/03/08 00:20:15;;;;;;;16.80;8.60;;;;;;;-2.25;74.87;101114.19;88217;1274;99204;-61
2022/03/08 00:22:27;;;;;;;19.60;8.10;;;;;;;-2.34;74.84;101107.88;88207;1274;87620;-61
2022/03/08 00:24:38;;;;;;;15.50;8.30;;;;;;;-2.43;74.79;101101.17;88187;1274;95660;-62
2022/03/08 00:26:47;;;;;;;17.60;8.60;;;;;;;-2.50;74.95;101101.61;88179;1274;80021;-61
2022/03/08 00:28:56;;;;;;;18.60;9.40;;;;;;;-2.58;75.35;101097.30;88207;1274;83709;-63
2022/03/08 00:31:09;;;;;;;16.50;8.50;;;;;;;-2.61;75.40;101094.48;88104;1277;100333;-63
2022/03/08 00:33:21;;;;;;;19.30;9.80;;;;;;;-2.64;75.47;101094.15;88201;1274;88227;-62
2022/03/08 00:35:33;;;;;;;17.60;9.70;;;;;;;-2.67;75.44;101090.80;88168;1274;95872;-62
2022/03/08 00:37:48;;;;;;;17.20;9.60;;;;;;;-2.72;75.63;101094.95;88157;1274;79985;-61
2022/03/08 00:40:00;;;;;;;15.90;9.00;;;;;;;-2.73;75.28;101092.88;88214;1274;81502;-61
2022/03/08 00:42:11;;;;;;;16.40;8.90;;;;;;;-2.76;75.74;101103.09;88202;1274;97842;-63
2022/03/08 00:44:20;;;;;;;16.60;8.80;;;;;;;-2.77;75.62;101103.33;88169;1274;89306;-61
2022/03/08 00:46:30;;;;;;;15.90;8.50;;;;;;;-2.79;75.70;101109.45;88172;1274;95292;-60
2022/03/08 00:48:42;;;;;;;20.00;9.00;;;;;;;-2.83;75.69;101106.19;88168;1274;80629;-63
2022/03/08 00:50:54;;;;;;;15.50;9.50;;;;;;;-2.85;75.86;101111.05;88166;1274;83609;-62
2022/03/08 00:53:07;;;;;;;17.50;8.40;;;;;;;-2.86;75.59;101111.28;88202;1274;99192;-68
2022/03/08 00:55:20;;;;;;;17.60;9.00;;;;;;;-2.90;75.70;101118.23;88192;1274;88485;-61
2022/03/08 00:57:32;;;;;;;;;;;;;;;-2.94;75.74;101122.82;88205;1274;96349;-61
2022/03/08 00:59:41;;;;;;;18.60;9.20;;;;;;;-2.99;75.80;101115.72;88194;1274;80165;-61
2022/03/08 01:01:54;;;;;;;15.60;8.40;;;;;;;-3.03;75.62;101114.52;88208;1274;82780;-61
2022/03/08 01:04:02;;;;;;;15.20;7.70;;;;;;;-3.06;75.79;101117.48;88178;1274;98112;-78
2022/03/08 01:06:12;;;;;;;14.30;7.90;;;;;;;-3.07;75.78;101115.27;88108;1277;87446;-80
2022/03/08 01:08:22;;;;;;;14.80;7.70;;;;;;;-3.11;75.78;101113.23;88193;1274;94583;-61
2022/03/08 01:10:35;;;;;;;16.60;8.40;;;;;;;-3.14;75.84;101108.62;88193;1274;78989;-61
2022/03/08 01:12:45;;;;;;;15.50;8.10;;;;;;;-3.17;75.80;101108.12;88206;1274;81321;-62
2022/03/08 01:14:55;;;;;;;18.00;8.00;;;;;;;-3.20;75.82;101111.94;88122;1277;100049;-80
2022/03/08 01:17:05;;;;;;;17.20;8.60;;;;;;;-3.22;76.05;101105.93;88124;1277;88578;-80
2022/03/08 01:19:14;;;;;;;14.70;7.80;;;;;;;-3.27;75.97;101104.80;88158;1274;95739;-62
2022/03/08 01:21:24;;;;;;;19.70;8.30;;;;;;;-3.33;76.08;101105.08;88153;1274;82226;-63
2022/03/08 01:23:33;;;;;;;16.90;9.00;;;;;;;-3.34;75.97;101098.63;88172;1277;83013;-62
2022/03/08 01:25:43;;;;;;;17.30;7.40;;;;;;;-3.35;76.33;101100.08;88181;1274;98952;-62
2022/03/08 01:27:56;;;;;;;16.00;7.80;;;;;;;-3.38;76.20;101097.83;88188;1274;88921;-62
2022/03/08 01:30:09;;;;;;;15.40;7.10;;;;;;;-3.40;76.18;101095.95;88169;1274;96016;-62
2022/03/08 01:32:18;;;;;;;10.10;5.20;;;;;;;-3.41;76.21;101093.39;88167;1277;80479;-61
2022/03/08 01:34:27;;;;;;;17.60;7.90;;;;;;;-3.41;76.26;101096.95;88179;1277;82918;-79
2022/03/08 01:36:41;;;;;;;13.40;6.80;;;;;;;-3.42;76.35;101090.98;88194;1274;99147;-79
2022/03/08 01:38:50;;;;;;;18.40;7.40;;;;;;;-3.42;76.41;101092.80;88141;1278;88487;-80
2022/03/08 01:41:00;;;;;;;15.60;6.90;;;;;;;-3.45;76.57;101089.21;88161;1277;93264;-79
2022/03/08 01:43:09;;;;;;;15.40;7.10;;;;;;;-3.44;76.47;101089.17;88156;1274;79119;-62
2022/03/08 01:45:20;;;;;;;13.50;6.80;;;;;;;-3.42;76.54;101090.83;88157;1277;81743;-62
2022/03/08 01:47:33;;;;;;;16.20;6.60;;;;;;;-3.40;76.58;101089.65;88186;1274;99309;-64
2022/03/08 01:49:42;;;;;;;12.40;6.20;;;;;;;-3.40;76.57;101089.30;88204;1274;89638;-79
2022/03/08 01:51:52;;;;;;;14.20;6.80;;;;;;;-3.39;76.46;101088.73;88211;1274;94929;-79
2022/03/08 01:54:02;;;;;;;13.70;7.60;;;;;;;-3.37;76.54;101087.23;88200;1274;82194;-78
2022/03/08 01:56:14;;;;;;;15.40;6.80;;;;;;;-3.39;76.81;101088.02;88194;1274;83790;-79
2022/03/08 01:58:24;;;;;;;13.90;7.30;;;;;;;-3.39;76.69;101088.34;88185;1274;100225;-62
2022/03/08 02:00:34;;;;;;;12.70;6.90;;;;;;;-3.40;76.84;101089.34;88169;1277;89184;-62
2022/03/08 02:02:44;;;;;;;14.10;6.90;;;;;;;-3.44;76.82;101088.84;88158;1274;93306;-62
2022/03/08 02:04:56;;;;;;;11.90;6.20;;;;;;;-3.46;76.82;101092.08;88193;1277;78778;-62
2022/03/08 02:07:07;;;;;;;14.90;6.70;;;;;;;-3.45;76.73;101098.21;88177;1274;81281;-63
2022/03/08 02:09:16;;;;;;;14.80;7.60;;;;;;;-3.46;76.84;101099.52;88175;1274;99584;-62
2022/03/08 02:11:30;;;;;;;12.40;5.90;;;;;;;-3.49;76.80;101094.20;88209;1274;88407;-61
2022/03/08 02:13:40;;;;;;;16.50;7.00;;;;;;;-3.49;76.61;101092.95;88154;1274;94971;-80
2022/03/08 02:15:54;;;;;;;16.80;7.20;;;;;;;-3.52;76.79;101092.95;88205;1274;80485;-79
2022/03/08 02:18:04;;;;;;;15.50;6.90;;;;;;;-3.54;76.94;101098.38;88228;1274;81494;-61
2022/03/08 02:20:16;;;;;;;14.80;7.30;;;;;;;-3.62;76.83;101101.09;88179;1274;98692;-60
2022/03/08 02:22:26;;;;;;;14.60;7.20;;;;;;;-3.68;77.14;101104.56;88216;1274;87807;-62
2022/03/08 02:24:35;;;;;;;15.60;7.70;;;;;;;-3.73;77.27;101103.25;88200;1274;94586;-79
2022/03/08 02:26:48;;;;;;;16.80;7.10;;;;;;;-3.80;77.06;101105.73;88214;1274;78397;-78
2022/03/08 02:28:59;;;;;;;13.00;6.80;;;;;;;-3.86;76.98;101107.32;88226;1274;83731;-63
2022/03/08 02:31:08;;;;;;;15.60;6.80;;;;;;;-3.89;77.14;101108.69;88177;1274;99075;-61
2022/03/08 02:33:17;;;;;;;16.20;7.40;;;;;;;-3.92;77.33;101111.81;88205;1274;91092;-62
2022/03/08 02:35:30;;;;;;;13.80;6.90;;;;;;;-3.93;77.42;101114.20;88175;1277;95080;-62
2022/03/08 02:37:45;;;;;;;13.20;6.90;;;;;;;-3.94;77.30;101114.92;88191;1274;81414;-62
2022/03/08 02:39:55;;;;;;;18.30;7.90;;;;;;;-3.94;77.37;101116.52;88247;1274;83123;-62
2022/03/08 02:42:06;;;;;;;15.10;7.20;;;;;;;-3.92;77.49;101115.54;88205;1274;98131;-62
2022/03/08 02:44:14;;;;;;;14.20;7.10;;;;;;;-3.93;77.63;101110.83;88217;1274;89565;-80
2022/03/08 02:46:24;;;;;;;14.60;7.20;;;;;;;-3.92;77.44;101108.88;88168;1277;94575;-79
2022/03/08 02:48:34;;;;;;;13.00;6.60;;;;;;;-3.92;77.42;101111.85;88190;1277;81662;-62
2022/03/08 02:50:46;;;;;;;14.10;7.40;;;;;;;-3.91;77.46;101114.08;88157;1277;83113;-60
2022/03/08 02:52:59;;;;;;;16.00;8.60;;;;;;;-3.90;77.51;101112.95;88206;1274;97561;-61
2022/03/08 02:55:12;;;;;;;19.10;8.40;;;;;;;-3.88;77.75;101112.35;88205;1274;86582;-62
2022/03/08 02:57:20;;;;;;;14.40;8.20;;;;;;;-3.91;77.73;101114.79;88180;1276;95130;-62
2022/03/08 02:59:33;;;;;;;16.20;7.50;;;;;;;-3.93;77.72;101123.48;88161;1276;78744;-79
2022/03/08 03:01:42;;;;;;;13.10;7.80;;;;;;;-3.92;77.57;101125.23;88198;1274;83208;-80
2022/03/08 03:03:52;;;;;;;13.50;7.20;;;;;;;-3.93;77.71;101125.95;88182;1277;98925;-63
2022/03/08 03:06:02;;;;;;;14.90;7.70;;;;;;;-3.94;77.76;101124.98;88223;1274;85907;-63
2022/03/08 03:08:12;;;;;;;18.10;6.80;;;;;;;-3.94;77.51;101126.55;88152;1276;95108;-63
2022/03/08 03:10:24;;;;;;;15.20;7.30;;;;;;;-3.96;77.64;101126.98;88211;1274;78386;-62
2022/03/08 03:12:33;;;;;;;16.10;7.30;;;;;;;-3.99;77.52;101132.79;88209;1275;80266;-61
2022/03/08 03:14:42;;;;;;;14.20;7.70;;;;;;;-3.99;77.85;101136.49;88191;1276;99171;-62
2022/03/08 03:16:51;;;;;;;16.30;7.30;;;;;;;-4.04;77.85;101141.52;88215;1274;87350;-61
2022/03/08 03:19:01;;;;;;;14.90;7.30;;;;;;;-4.08;77.68;101137.83;88186;1277;94298;-61
2022/03/08 03:21:11;;;;;;;15.50;7.80;;;;;;;-4.14;77.61;101139.91;88209;1274;79689;-62
2022/03/08 03:23:23;;;;;;;19.90;7.70;;;;;;;-4.18;77.61;101142.59;88205;1274;81061;-79
2022/03/08 03:25:34;;;;;;;15.80;8.60;;;;;;;-4.22;77.55;101137.17;88202;1274;99487;-79
2022/03/08 03:27:45;;;;;;;17.00;7.90;;;;;;;-4.28;77.64;101145.20;88225;1274;88743;-78
2022/03/08 03:29:54;;;;;;;16.60;7.60;;;;;;;-4.34;77.82;101145.34;88196;1277;95700;-79
2022/03/08 03:32:04;;;;;;;17.60;7.40;;;;;;;-4.36;77.81;101148.23;88156;1275;78961;-79
2022/03/08 03:34:16;;;;;;;13.50;7.20;;;;;;;-4.39;77.82;101148.95;88201;1274;81800;-79
2022/03/08 03:36:25;;;;;;;16.00;7.70;;;;;;;-4.41;77.78;101157.80;88205;1274;97928;-79
2022/03/08 03:38:35;;;;;;;15.70;7.60;;;;;;;-4.41;77.96;101157.66;85753;1274;3303000;-79
2022/03/08 03:40:46;;;;;;;16.70;7.40;;;;;;;-4.43;77.93;101159.15;88167;1276;94365;-80
2022/03/08 03:42:59;;;;;;;16.00;7.40;;;;;;;-4.44;78.08;101161.84;88185;1275;81811;-79
2022/03/08 03:45:11;;;;;;;17.10;8.10;;;;;;;-4.44;77.99;101159.53;88202;1276;82713;-80
2022/03/08 03:47:21;;;;;;;12.60;6.60;;;;;;;-4.44;78.16;101155.34;88197;1275;97311;-79
2022/03/08 03:49:30;;;;;;;13.50;7.10;;;;;;;-4.44;78.32;101152.33;88227;1274;89188;-79
2022/03/08 03:51:39;;;;;;;14.80;8.20;;;;;;;-4.44;78.05;101154.95;88188;1274;95573;-80
2022/03/08 03:53:49;;;;;;;15.10;7.50;;;;;;;-4.44;78.22;101153.35;88206;1274;78552;-61
2022/03/08 03:56:00;;;;;;;13.90;6.70;;;;;;;-4.40;78.41;101156.16;88222;1274;83354;-61
2022/03/08 03:58:11;;;;;;;13.70;6.80;;;;;;;-4.39;78.30;101154.15;88213;1274;98183;-79
2022/03/08 04:00:21;;;;;;;11.90;6.10;;;;;;;-4.37;78.48;101153.90;88219;1274;89047;-79
2022/03/08 04:02:30;;;;;;;13.10;6.80;;;;;;;-4.37;78.28;101152.32;88152;1274;94748;-79
2022/03/08 04:04:39;;;;;;;14.50;6.80;;;;;;;-4.37;78.24;101152.67;88128;1277;81318;-79
2022/03/08 04:06:49;;;;;;;13.90;6.40;;;;;;;-4.36;78.34;101158.93;88193;1275;83459;-80
2022/03/08 04:09:02;;;;;;;13.60;6.80;;;;;;;-4.38;78.41;101158.88;88209;1274;100169;-62
2022/03/08 04:11:12;;;;;;;14.30;7.10;;;;;;;-4.38;78.42;101158.01;88224;1274;86892;-63
2022/03/08 04:13:24;;;;;;;13.10;6.90;;;;;;;-4.38;78.35;101160.65;88196;1274;93716;-81
2022/03/08 04:15:34;;;;;;;14.10;8.00;;;;;;;-4.37;78.21;101161.13;88199;1274;79993;-75
2022/03/08 04:17:43;;;;;;;15.90;7.80;;;;;;;-4.40;78.45;101160.94;88204;1274;82149;-80
2022/03/08 04:19:53;;;;;;;13.80;6.90;;;;;;;-4.42;78.30;101161.05;88226;1273;99333;-63
2022/03/08 04:22:03;;;;;;;13.20;6.40;;;;;;;-4.48;78.14;101163.45;88205;1274;87762;-62
2022/03/08 04:24:12;;;;;;;13.40;7.00;;;;;;;-4.52;78.30;101168.55;88177;1274;96189;-62
2022/03/08 04:26:22;;;;;;;12.30;7.10;;;;;;;-4.57;78.35;101169.50;88177;1274;81712;-61
2022/03/08 04:28:36;;;;;;;12.30;7.40;;;;;;;-4.62;78.19;101165.73;88196;1274;81000;-65
2022/03/08 04:30:45;;;;;;;12.60;7.10;;;;;;;-4.66;78.36;101172.08;88204;1274;99668;-62
2022/03/08 04:32:55;;;;;;;14.60;7.40;;;;;;;-4.72;78.30;101169.39;88180;1274;88532;-63
2022/03/08 04:35:09;;;;;;;11.50;6.70;;;;;;;-4.76;78.59;101170.45;88164;1276;95545;-62
2022/03/08 04:37:19;;;;;;;14.60;6.60;;;;;;;-4.78;78.56;101170.01;88203;1274;80308;-60
2022/03/08 04:39:29;;;;;;;11.80;6.40;;;;;;;-4.78;78.52;101172.11;88203;1274;81885;-62
2022/03/08 04:41:39;;;;;;;12.50;6.60;;;;;;;-4.78;78.44;101173.15;88157;1276;99112;-62
2022/03/08 04:43:49;;;;;;;13.70;6.80;;;;;;;-4.80;78.68;101168.52;88216;1274;88251;-80
2022/03/08 04:45:59;;;;;;;10.80;6.70;;;;;;;-4.82;78.82;101171.23;88199;1274;94739;-80
2022/03/08 04:48:09;;;;;;;10.40;6.60;;;;;;;-4.79;78.63;101168.48;88155;1277;81420;-62
2022/03/08 04:50:19;;;;;;;11.50;6.80;;;;;;;-4.76;78.64;101167.44;88096;1277;82707;-62
2022/03/08 04:52:28;;;;;;;12.50;7.30;;;;;;;-4.73;78.54;101162.36;88166;1277;98800;-64
2022/03/08 04:54:38;;;;;;;14.10;6.90;;;;;;;-4.73;78.74;101162.58;88177;1276;89115;-78
2022/03/08 04:56:47;;;;;;;11.30;6.60;;;;;;;-4.78;78.68;101166.15;88215;1274;95180;-79
2022/03/08 04:58:58;;;;;;;12.20;6.20;;;;;;;-4.82;78.61;101169.30;88220;1274;79152;-62
2022/03/08 05:01:07;;;;;;;12.20;7.10;;;;;;;-4.82;78.66;101172.33;88177;1276;83192;-63
2022/03/08 05:03:16;;;;;;;12.60;7.00;;;;;;;-4.82;78.69;101175.81;88205;1274;98747;-65
2022/03/08 05:05:32;;;;;;;14.10;7.80;;;;;;;-4.76;78.52;101175.01;88201;1274;88284;-62
2022/03/08 05:07:42;;;;;;;13.60;7.00;;;;;;;-4.71;78.86;101169.88;88166;1276;94519;-62
2022/03/08 05:09:52;;;;;;;10.90;6.80;;;;;;;-4.63;78.73;101173.35;88080;1277;79711;-78
2022/03/08 05:12:03;;;;;;;14.70;6.60;;;;;;;-4.61;78.80;101172.33;88230;1274;81592;-80
2022/03/08 05:14:13;;;;;;;16.50;7.50;;;;;;;-4.58;78.86;101176.08;88209;1274;98672;-79
2022/03/08 05:16:22;;;;;;;13.30;6.90;;;;;;;-4.54;78.93;101177.45;88225;1274;89198;-78
2022/03/08 05:18:32;;;;;;;13.90;7.40;;;;;;;-4.50;78.96;101183.55;88239;1274;94639;-61
2022/03/08 05:20:45;;;;;;;14.20;7.40;;;;;;;-4.43;78.86;101187.46;88161;1274;80345;-62
2022/03/08 05:22:56;;;;;;;15.20;8.60;;;;;;;-4.36;79.03;101196.04;88191;1274;81882;-62
2022/03/08 05:25:07;;;;;;;16.60;9.80;;;;;;;-4.27;79.19;101203.67;88199;1274;98917;-61
2022/03/08 05:27:16;;;;;;;18.30;10.50;;;;;;;-4.17;79.14;101200.55;88198;1274;88520;-64
2022/03/08 05:29:26;;;;;;;22.30;11.80;;;;;;;-4.03;79.44;101197.58;88180;1274;93145;-61
2022/03/08 05:31:35;;;;;;;21.80;12.30;;;;;;;-3.86;79.76;101200.39;88191;1274;79274;-62
2022/03/08 05:33:45;;;;;;;19.70;11.50;;;;;;;-3.70;79.90;101203.73;88172;1274;81583;-60
2022/03/08 05:35:54;;;;;;;15.60;10.10;;;;;;;-3.54;79.96;101198.89;88172;1274;99344;-61
2022/03/08 05:38:07;;;;;;;18.00;10.50;;;;;;;-3.41;80.09;101196.05;88221;1274;87976;-63
2022/03/08 05:40:17;;;;;;;20.00;11.80;;;;;;;-3.27;80.32;101202.52;88168;1274;94403;-61
2022/03/08 05:42:26;;;;;;;18.10;11.00;;;;;;;-3.16;80.39;101204.04;88202;1274;80556;-62
2022/03/08 05:44:36;;;;;;;21.90;12.70;;;;;;;-3.03;80.22;101200.48;88235;1276;80594;-80
2022/03/08 05:46:50;;;;;;;21.30;11.60;;;;;;;-2.92;80.69;101203.77;88216;1276;98741;-73
2022/03/08 05:48:59;;;;;;;19.60;12.10;;;;;;;-2.82;80.39;101213.06;88183;1274;88830;-62
2022/03/08 05:51:09;;;;;;;22.60;12.60;;;;;;;-2.71;80.31;101230.28;88176;1274;94393;-62
2022/03/08 05:53:19;;;;;;;21.60;13.20;;;;;;;-2.62;80.71;101227.63;88189;1274;79976;-62
2022/03/08 05:55:28;;;;;;;20.60;11.80;;;;;;;-2.57;80.65;101226.48;88206;1274;81554;-61
2022/03/08 05:57:38;;;;;;;21.20;12.10;;;;;;;-2.58;80.68;101233.39;88159;1276;99575;-61
2022/03/08 05:59:49;;;;;;;25.70;14.70;;;;;;;-2.51;80.75;101226.80;88131;1276;86891;-62
2022/03/08 06:02:02;;;;;;;23.50;13.60;;;;;;;-2.46;80.40;101224.59;88142;1276;94997;-61
2022/03/08 06:04:12;;;;;;;22.50;12.60;;;;;;;-2.40;80.76;101230.07;88198;1276;80329;-63
2022/03/08 06:06:21;;;;;;;20.30;13.40;;;;;;;-2.37;80.96;101233.98;88194;1274;80567;-61
2022/03/08 06:08:31;;;;;;;19.70;12.20;;;;;;;-2.31;80.67;101236.49;88200;1274;98959;-61
2022/03/08 06:10:44;;;;;;;20.10;12.30;;;;;;;-2.22;80.62;101247.95;88159;1276;87960;-61
2022/03/08 06:12:54;;;;;;;22.60;13.60;;;;;;;-2.11;80.57;101254.71;88171;1274;95090;-62
2022/03/08 06:15:04;;;;;;;19.40;13.20;;;;;;;-2.04;80.65;101256.05;88185;1274;80546;-74
2022/03/08 06:17:14;;;;;;;22.10;12.70;;;;;;;-1.98;80.40;101257.09;88173;1276;82749;-79
2022/03/08 06:19:24;;;;;;;17.90;12.30;;;;;;;-1.95;80.52;101262.77;88171;1276;99606;-72
2022/03/08 06:21:34;;;;;;;21.90;13.00;;;;;;;-1.87;80.50;101266.36;88206;1276;89408;-75
2022/03/08 06:23:45;;;;;;;18.00;11.70;;;;;;;-1.80;80.59;101259.42;88206;1274;95794;-72
2022/03/08 06:25:54;;;;;;;20.10;12.40;;;;;;;-1.73;80.28;101256.90;88146;1276;81512;-76
2022/03/08 06:28:05;;;;;;;19.40;12.60;;;;;;;-1.71;80.52;101253.73;88185;1274;82049;-62
2022/03/08 06:30:15;;;;;;;21.50;11.50;;;;;;;-1.65;80.63;101255.01;88205;1274;96730;-61
2022/03/08 06:32:24;;;;;;;18.70;12.10;;;;;;;-1.65;80.57;101253.93;88221;1274;89339;-62
2022/03/08 06:34:34;;;;;;;17.50;11.70;;;;;;;-1.64;80.45;101251.40;88198;1274;96085;-76
2022/03/08 06:36:44;;;;;;;18.40;11.50;;;;;;;-1.59;80.44;101249.66;88183;1274;79706;-76
2022/03/08 06:38:56;;;;;;;14.80;10.80;;;;;;;-1.53;80.38;101244.38;88212;1273;82457;-79
2022/03/08 06:41:07;;;;;;;16.80;11.40;;;;;;;-1.49;80.37;101246.60;88174;1274;99527;-74
2022/03/08 06:43:16;;;;;;;20.00;12.80;;;;;;;-1.44;80.46;101248.27;88199;1274;89046;-74
2022/03/08 06:45:25;;;;;;;18.30;12.40;;;;;;;-1.39;80.60;101252.02;88175;1274;95128;-75
2022/03/08 06:47:35;;;;;;;15.10;11.00;;;;;;;-1.35;80.50;101252.83;88179;1274;78688;-74
2022/03/08 06:49:48;;;;;;;17.20;11.20;;;;;;;-1.31;80.51;101256.25;88222;1274;82297;-62
2022/03/08 06:51:59;;;;;;;12.90;10.30;;;;;;;-1.27;80.48;101262.73;88189;1274;100162;-60
2022/03/08 06:54:09;;;;;;;14.60;10.90;;;;;;;-1.29;80.71;101260.90;88223;1274;89468;-75
2022/03/08 06:56:18;;;;;;;13.80;10.30;;;;;;;-1.24;80.37;101268.91;88195;1274;96082;-73
2022/03/08 06:58:29;;;;;;;16.20;11.00;;;;;;;-1.20;80.55;101266.55;88175;1274;81753;-61
2022/03/08 07:00:39;;;;;;;16.80;10.00;;;;;;;-1.13;80.21;101273.88;88218;1274;80118;-66
2022/03/08 07:02:49;;;;;;;12.40;10.30;;;;;;;-1.07;80.32;101275.63;88184;1274;98277;-60
2022/03/08 07:05:02;;;;;;;13.40;9.90;;;;;;;-1.04;80.16;101269.46;88237;1274;86751;-73
2022/03/08 07:07:12;;;;;;;13.30;10.80;;;;;;;-1.03;80.54;101269.03;88191;1274;94533;-78
2022/03/08 07:09:25;;;;;;;13.60;10.80;;;;;;;-0.94;80.53;101274.52;88222;1274;79494;-78
2022/03/08 07:11:36;;;;;;;12.80;11.40;;;;;;;-0.90;80.25;101267.50;88203;1274;80883;-77
2022/03/08 07:13:45;;;;;;;15.00;10.30;;;;;;;-0.87;80.42;101261.98;88168;1274;99044;-66
2022/03/08 07:15:54;;;;;;;15.40;10.20;;;;;;;-0.83;80.49;101265.33;88205;1274;90141;-62
2022/03/08 07:18:04;;;;;;;11.30;9.40;;;;;;;-0.84;80.34;101272.44;88164;1274;94288;-68
2022/03/08 07:20:15;;;;;;;12.50;10.60;;;;;;;-0.81;80.16;101274.70;88170;1274;80092;-62
2022/03/08 07:22:25;;;;;;;11.90;9.70;;;;;;;-0.77;80.01;101275.50;88218;1276;82312;-62
2022/03/08 07:24:38;;;;;;;14.10;10.30;;;;;;;-0.75;80.17;101280.55;88080;1277;100842;-75
2022/03/08 07:26:48;;;;;;;11.20;9.20;;;;;;;-0.74;80.23;101283.29;88170;1276;89561;-70
2022/03/08 07:29:02;;;;;;;10.80;9.10;;;;;;;-0.75;80.11;101282.48;88169;1274;94842;-61
2022/03/08 07:31:12;;;;;;;12.60;9.10;;;;;;;-0.71;80.39;101292.67;88178;1274;79760;-62
2022/03/08 07:33:25;;;;;;;12.00;9.40;;;;;;;-0.66;79.82;101293.23;88215;1274;83618;-78
2022/03/08 07:35:35;;;;;;;12.00;9.10;;;;;;;-0.64;79.96;101295.36;88221;1274;97892;-78
2022/03/08 07:37:44;;;;;;;11.90;9.20;;;;;;;-0.62;80.05;101298.10;88210;1274;87998;-73
2022/03/08 07:39:55;;;;;;;14.00;9.60;;;;;;;-0.54;80.13;101295.84;88114;1276;93083;-61
2022/03/08 07:42:08;;;;;;;13.10;9.80;;;;;;;-0.51;79.98;101298.66;88177;1276;78580;-60
2022/03/08 07:44:18;;;;;;;10.50;9.40;;;;;;;-0.46;80.04;101302.90;88109;1276;82979;-76
2022/03/08 07:46:28;;;;;;;14.50;10.00;;;;;;;-0.48;79.99;101305.55;88236;1274;100200;-75
2022/03/08 07:48:41;;;;;;;12.50;10.20;;;;;;;-0.51;79.86;101308.55;88197;1276;87620;-71
2022/03/08 07:50:53;;;;;;;13.40;10.60;;;;;;;-0.51;80.02;101310.69;88178;1275;95180;-81
2022/03/08 07:53:03;;;;;;;13.10;10.20;;;;;;;-0.49;79.92;101309.98;88216;1274;80883;-65
2022/03/08 07:55:16;;;;;;;13.20;10.90;;;;;;;-0.49;79.89;101310.90;88153;1276;83094;-75
2022/03/08 07:57:28;;;;;;;12.30;10.10;;;;;;;-0.46;80.01;101306.09;88174;1276;99624;-72
2022/03/08 07:59:38;;;;;;;11.80;10.00;;;;;;;-0.43;79.79;101299.00;88221;1274;88680;-59
2022/03/08 08:01:48;;;;;;;38.30;22.90;;;;;;;-0.39;79.94;101295.91;88192;1274;94474;-61
2022/03/08 08:03:57;;;;;;;16.90;11.30;;;;;;;-0.36;79.77;101299.79;88208;1274;79913;-60
2022/03/08 08:06:08;;;;;;;11.80;9.20;;;;;;;-0.28;79.88;101294.34;88181;1276;81107;-62
2022/03/08 08:08:18;;;;;;;13.40;10.00;;;;;;;-0.24;79.75;101290.89;88217;1274;98264;-61
2022/03/08 08:10:32;;;;;;;11.40;9.90;;;;;;;-0.20;79.86;101290.95;88207;1274;87424;-63
2022/03/08 08:12:42;;;;;;;10.40;9.10;;;;;;;-0.21;79.74;101287.12;88191;1274;95550;-61
2022/03/08 08:14:52;;;;;;;14.50;10.20;;;;;;;-0.17;79.86;101284.73;88224;1274;80863;-62
2022/03/08 08:17:02;;;;;;;11.70;10.10;;;;;;;-0.14;79.69;101285.25;88216;1274;83012;-62
2022/03/08 08:19:12;;;;;;;13.30;10.30;;;;;;;-0.07;79.73;101290.11;88168;1274;98363;-61
2022/03/08 08:21:22;;;;;;;13.40;10.90;;;;;;;-0.06;79.73;101289.53;88201;1274;86908;-59
2022/03/08 08:23:32;;;;;;;12.60;10.80;;;;;;;-0.03;79.66;101292.30;88169;1275;97325;-73
2022/03/08 08:25:44;;;;;;;15.10;11.20;;;;;;;0.02;79.51;101291.65;88199;1274;80927;-73
2022/03/08 08:27:57;;;;;;;15.80;11.50;;;;;;;0.02;79.49;101293.75;88202;1274;82015;-76
2022/03/08 08:30:10;;;;;;;13.00;11.30;;;;;;;0.05;79.47;101294.45;88193;1274;100662;-60
2022/03/08 08:32:20;;;;;;;13.40;11.20;;;;;;;0.06;79.24;101295.60;88192;1274;88786;-62
2022/03/08 08:34:29;;;;;;;15.80;12.10;;;;;;;0.06;79.60;101293.86;88176;1274;96035;-73
2022/03/08 08:36:39;;;;;;;14.60;12.10;;;;;;;0.07;79.66;101295.20;88190;1274;80461;-74
2022/03/08 08:38:48;;;;;;;14.30;12.40;;;;;;;0.10;79.45;101290.40;88183;1274;82416;-72
2022/03/08 08:41:01;;;;;;;14.00;12.50;;;;;;;0.16;79.58;101287.52;88226;1274;99348;-77
2022/03/08 08:43:12;;;;;;;17.80;13.70;;;;;;;0.23;79.46;101287.92;88430;1274;87972;-76
2022/03/08 08:45:22;;;;;;;16.30;14.00;;;;;;;0.24;79.34;101283.08;88276;1274;93714;-71
2022/03/08 08:47:35;;;;;;;20.20;15.30;;;;;;;0.26;79.33;101283.65;88215;1274;81515;-73
2022/03/08 08:49:45;;;;;;;16.10;13.60;;;;;;;0.29;79.32;101282.77;88245;1274;80489;-74
2022/03/08 08:51:55;;;;;;;14.10;12.50;;;;;;;0.38;79.28;101286.75;88212;1274;99796;-74
2022/03/08 08:54:06;;;;;;;16.20;13.30;;;;;;;0.45;79.33;101286.23;88191;1274;89618;-60
2022/03/08 08:56:16;;;;;;;16.70;12.50;;;;;;;0.58;79.27;101279.70;88186;1276;93786;-60
2022/03/08 08:58:30;;;;;;;15.20;12.80;;;;;;;0.70;79.13;101271.80;88176;1274;81020;-63
2022/03/08 09:00:40;;;;;;;15.80;13.10;;;;;;;0.80;79.10;101270.55;88200;1274;80113;-65
2022/03/08 09:02:52;;;;;;;13.50;12.10;;;;;;;0.85;79.30;101271.33;88202;1276;100739;-62
2022/03/08 09:05:05;;;;;;;14.70;11.40;;;;;;;0.87;79.17;101267.20;88155;1275;88953;-61
2022/03/08 09:07:15;;;;;;;14.70;12.00;;;;;;;0.89;79.10;101266.59;88172;1276;95231;-60
2022/03/08 09:09:24;;;;;;;16.20;11.70;;;;;;;0.98;79.07;101264.12;88232;1276;79796;-78
2022/03/08 09:11:35;;;;;;;15.80;11.60;;;;;;;1.02;79.02;101256.08;88211;1276;83590;-77
2022/03/08 09:13:45;;;;;;;14.40;11.90;;;;;;;1.23;78.88;101254.41;88221;1274;99227;-61
2022/03/08 09:15:55;;;;;;;13.20;11.50;;;;;;;1.42;78.63;101253.37;88213;1274;86945;-61
2022/03/08 09:18:07;;;;;;;11.90;10.60;;;;;;;1.60;78.70;101252.75;88185;1274;95367;-74
2022/03/08 09:20:19;;;;;;;11.60;9.60;;;;;;;1.70;78.44;101252.73;88200;1274;77216;-74
2022/03/08 09:22:30;;;;;;;11.70;9.90;;;;;;;1.75;78.06;101252.51;88168;1277;82031;-75
2022/03/08 09:24:39;;;;;;;12.60;10.20;;;;;;;1.78;77.80;101244.87;88213;1274;98930;-61
2022/03/08 09:26:49;;;;;;;13.80;10.10;;;;;;;1.79;77.63;101249.38;88179;1274;88836;-64
2022/03/08 09:28:59;;;;;;;11.80;9.80;;;;;;;1.83;77.44;101250.20;88184;1274;94846;-62
2022/03/08 09:31:09;;;;;;;12.80;10.50;;;;;;;1.87;77.19;101246.50;88188;1277;80490;-62
2022/03/08 09:33:21;;;;;;;15.10;11.70;;;;;;;1.97;77.02;101244.39;88194;1274;82695;-63
2022/03/08 09:35:31;;;;;;;16.00;12.50;;;;;;;1.98;76.93;101241.95;88182;1274;100026;-59
2022/03/08 09:37:40;;;;;;;16.30;13.60;;;;;;;2.02;76.85;101234.38;88211;1274;88749;-61
2022/03/08 09:39:51;;;;;;;22.80;17.40;;;;;;;2.08;76.76;101238.39;88176;1274;95411;-76
2022/03/08 09:42:02;;;;;;;26.70;19.20;;;;;;;2.10;76.59;101240.16;88189;1274;78400;-77
2022/03/08 09:44:17;;;;;;;24.70;18.40;;;;;;;2.09;76.38;101241.11;88225;1274;81409;-76
2022/03/08 09:46:29;;;;;;;23.10;16.60;;;;;;;2.13;76.33;101234.98;88198;1276;98973;-77
2022/03/08 09:48:38;;;;;;;16.80;14.70;;;;;;;2.09;76.23;101234.36;88204;1276;87072;-62
2022/03/08 09:50:48;;;;;;;16.90;14.70;;;;;;;2.13;76.19;101233.83;88169;1274;94411;-73
2022/03/08 09:53:00;;;;;;;16.80;14.00;;;;;;;2.33;76.19;101225.59;88227;1274;78055;-75
2022/03/08 09:55:14;;;;;;;16.10;12.90;;;;;;;2.40;75.99;101231.67;88208;1274;81074;-74
2022/03/08 09:57:25;;;;;;;14.50;12.70;;;;;;;2.46;75.86;101230.08;88203;1274;98401;-61